Time;durP1;ratioP1;P1;durP2;ratioP2;P2;SDS_P1;SDS_P2;PMS_P1;PMS_P2;Temp;Humidity;BMP_temperature;BMP_pressure;BME280_temperature;BME280_humidity;BME280_pressure;Samples;Min_cycle;Max_cycle;Signal;HPM_P1;HPM_P2
2023/10/11 00:01:11;;;;;;;15.80;7.60;;;15.10;71.30;;;;;;5031586;28;20190;-70
2023/10/11 00:03:45;;;;;;;16.20;8.50;;;15.00;71.00;;;;;;5029932;28;20187;-72
2023/10/11 00:06:13;;;;;;;20.17;7.33;;;15.00;71.40;;;;;;5022607;28;20500;-69
2023/10/11 00:08:40;;;;;;;17.93;8.60;;;15.00;71.30;;;;;;5033948;28;20421;-72
2023/10/11 00:11:09;;;;;;;18.97;8.27;;;15.00;71.00;;;;;;5033474;28;20433;-72
2023/10/11 00:13:36;;;;;;;17.27;8.00;;;15.00;71.30;;;;;;5027888;28;20804;-71
2023/10/11 00:16:08;;;;;;;19.03;7.47;;;15.00;71.60;;;;;;5027462;28;20456;-71
2023/10/11 00:18:39;;;;;;;16.67;7.67;;;15.00;71.40;;;;;;5026467;28;20480;-70
2023/10/11 00:21:17;;;;;;;16.63;7.40;;;14.90;71.70;;;;;;5028712;28;20457;-70
2023/10/11 00:23:50;;;;;;;20.67;7.93;;;14.90;71.70;;;;;;5031574;28;20925;-70
2023/10/11 00:26:17;;;;;;;13.20;7.67;;;14.80;72.00;;;;;;5022764;28;20516;-71
2023/10/11 00:28:43;;;;;;;18.47;8.87;;;14.80;72.10;;;;;;5028105;28;20803;-70
2023/10/11 00:31:16;;;;;;;17.83;8.00;;;14.80;72.10;;;;;;5031392;28;20418;-71
2023/10/11 00:33:42;;;;;;;18.30;7.23;;;14.70;72.40;;;;;;5026501;28;20457;-71
2023/10/11 00:36:08;;;;;;;15.03;7.80;;;14.70;72.60;;;;;;5025995;28;21139;-71
2023/10/11 00:38:46;;;;;;;16.60;7.93;;;14.70;72.60;;;;;;5017708;28;20213;-71
2023/10/11 00:41:17;;;;;;;14.10;7.33;;;14.70;72.60;;;;;;5025502;28;20184;-71
2023/10/11 00:43:54;;;;;;;14.23;7.47;;;14.70;72.60;;;;;;5021975;28;20414;-71
2023/10/11 00:46:24;;;;;;;19.00;7.93;;;14.80;72.90;;;;;;5019426;28;20462;-71
2023/10/11 00:48:54;;;;;;;15.13;7.00;;;14.80;72.70;;;;;;5030137;28;20420;-71
2023/10/11 00:51:32;;;;;;;18.80;8.27;;;14.70;72.90;;;;;;5029566;28;20430;-72
2023/10/11 00:54:00;;;;;;;16.10;8.00;;;14.60;73.30;;;;;;5021782;28;20420;-70
2023/10/11 00:56:32;;;;;;;20.80;9.43;;;14.60;73.90;;;;;;5023233;28;20474;-69
2023/10/11 00:58:58;;;;;;;16.07;8.27;;;14.70;74.20;;;;;;5029297;28;20794;-69
2023/10/11 01:01:25;;;;;;;17.80;8.03;;;14.70;74.50;;;;;;5029802;28;20416;-70
2023/10/11 01:03:52;;;;;;;15.50;7.93;;;14.60;74.80;;;;;;5031903;28;20424;-71
2023/10/11 01:06:18;;;;;;;22.00;8.43;;;14.60;74.00;;;;;;5019947;28;20845;-69
2023/10/11 01:08:48;;;;;;;11.80;6.00;;;14.70;73.00;;;;;;5024278;28;20425;-70
2023/10/11 01:11:14;;;;;;;13.47;6.63;;;14.60;72.70;;;;;;5026110;28;20202;-71
2023/10/11 01:13:41;;;;;;;14.90;7.07;;;14.40;73.00;;;;;;5027605;28;20920;-71
2023/10/11 01:16:09;;;;;;;15.90;7.03;;;14.40;73.30;;;;;;5028979;28;20460;-71
2023/10/11 01:18:35;;;;;;;13.90;7.10;;;14.40;73.50;;;;;;5024547;28;20888;-70
2023/10/11 01:21:03;;;;;;;18.17;6.63;;;14.40;73.30;;;;;;5026322;28;20531;-70
2023/10/11 01:23:29;;;;;;;15.67;6.73;;;14.30;73.70;;;;;;5029930;28;20473;-70
2023/10/11 01:25:55;;;;;;;14.50;7.37;;;14.30;73.30;;;;;;5021450;28;20840;-71
2023/10/11 01:28:21;;;;;;;16.77;6.40;;;14.20;73.20;;;;;;5031064;28;20206;-70
2023/10/11 01:30:47;;;;;;;13.57;6.63;;;14.30;72.90;;;;;;5023278;28;20553;-70
2023/10/11 01:33:16;;;;;;;13.20;6.33;;;14.40;72.30;;;;;;5030120;28;20433;-70
2023/10/11 01:35:42;;;;;;;16.00;6.87;;;14.40;72.30;;;;;;5021370;28;20526;-70
2023/10/11 01:38:08;;;;;;;12.30;5.67;;;14.40;72.30;;;;;;5028276;28;20564;-72
2023/10/11 01:40:34;;;;;;;12.63;6.43;;;14.40;72.60;;;;;;5032187;28;20429;-72
2023/10/11 01:43:02;;;;;;;15.90;6.37;;;14.50;72.60;;;;;;5030724;28;20433;-71
2023/10/11 01:45:28;;;;;;;15.30;6.30;;;14.50;72.60;;;;;;5024982;28;20215;-71
2023/10/11 01:47:56;;;;;;;18.33;6.37;;;14.60;72.60;;;;;;5028576;28;20444;-69
2023/10/11 01:50:24;;;;;;;16.97;6.20;;;14.60;72.60;;;;;;5024676;28;20558;-71
2023/10/11 01:52:50;;;;;;;15.60;6.73;;;14.50;72.60;;;;;;5030754;28;20420;-72
2023/10/11 01:55:17;;;;;;;11.10;6.10;;;14.50;72.60;;;;;;5021603;28;20463;-70
2023/10/11 01:57:45;;;;;;;15.27;6.70;;;14.50;72.30;;;;;;5024614;28;20473;-70
2023/10/11 02:00:16;;;;;;;12.77;6.57;;;14.50;72.40;;;;;;5026350;28;20420;-71
2023/10/11 02:02:47;;;;;;;14.60;6.43;;;14.50;72.70;;;;;;5026849;28;21037;-71
2023/10/11 02:05:17;;;;;;;13.90;6.40;;;14.40;73.00;;;;;;5028543;28;20580;-70
2023/10/11 02:07:42;;;;;;;16.57;5.83;;;14.40;72.90;;;;;;5021116;28;20528;-70
2023/10/11 02:10:12;;;;;;;12.80;6.30;;;14.40;73.20;;;;;;5029953;28;20500;-70
2023/10/11 02:12:45;;;;;;;11.97;5.97;;;14.40;73.20;;;;;;5022281;28;20240;-71
2023/10/11 02:15:27;;;;;;;13.10;5.53;;;14.40;73.30;;;;;;5020942;28;20479;-72
2023/10/11 02:17:54;;;;;;;16.90;7.30;;;14.40;73.30;;;;;;5021120;28;20472;-72
2023/10/11 02:20:21;;;;;;;18.60;6.40;;;14.50;73.00;;;;;;5020769;28;20448;-71
2023/10/11 02:22:51;;;;;;;12.27;6.10;;;14.40;73.00;;;;;;5019650;28;20478;-72
2023/10/11 02:25:24;;;;;;;12.87;6.27;;;14.40;73.60;;;;;;5020621;28;20472;-72
2023/10/11 02:27:50;;;;;;;19.37;7.37;;;14.50;73.30;;;;;;5020285;28;20426;-72
2023/10/11 02:30:24;;;;;;;17.07;7.10;;;14.50;72.90;;;;;;5026548;28;20435;-72
2023/10/11 02:32:51;;;;;;;13.83;6.50;;;14.40;73.60;;;;;;5028814;28;20429;-72
2023/10/11 02:35:18;;;;;;;14.70;6.33;;;14.50;73.20;;;;;;5023923;28;20452;-72
2023/10/11 02:37:45;;;;;;;16.97;7.63;;;14.50;73.30;;;;;;5025124;28;20994;-71
2023/10/11 02:40:16;;;;;;;20.50;6.50;;;14.50;73.30;;;;;;5025182;28;20420;-71
2023/10/11 02:42:44;;;;;;;17.60;6.97;;;14.40;73.50;;;;;;5027548;28;20432;-71
2023/10/11 02:45:12;;;;;;;19.87;7.30;;;14.30;73.70;;;;;;5022780;28;20444;-71
2023/10/11 02:47:39;;;;;;;17.80;6.67;;;14.40;74.00;;;;;;5025226;28;20429;-72
2023/10/11 02:50:07;;;;;;;20.23;7.20;;;14.40;74.00;;;;;;5024194;28;20408;-72
2023/10/11 02:52:35;;;;;;;15.13;6.80;;;14.30;74.00;;;;;;5028021;28;20889;-72
2023/10/11 02:55:20;;;;;;;15.87;6.90;;;14.20;74.50;;;;;;5018761;28;20451;-73
2023/10/11 02:57:47;;;;;;;14.70;7.23;;;14.10;74.90;;;;;;5021626;28;20490;-72
2023/10/11 03:00:21;;;;;;;20.17;7.63;;;14.10;75.20;;;;;;5016289;28;20423;-72
2023/10/11 03:02:53;;;;;;;16.73;7.17;;;14.10;75.40;;;;;;5021872;28;20424;-72
2023/10/11 03:05:26;;;;;;;11.83;6.83;;;14.10;75.40;;;;;;5013503;28;21239;-72
2023/10/11 03:08:13;;;;;;;17.30;7.33;;;14.10;75.40;;;;;;5021749;28;20513;-72
2023/10/11 03:10:43;;;;;;;13.33;7.30;;;14.10;75.50;;;;;;5023490;28;20508;-73
2023/10/11 03:13:41;;;;;;;21.00;8.07;;;14.10;75.70;;;;;;5028979;28;20929;-72
2023/10/11 03:15:59;;;;;;;17.13;7.47;;;14.10;75.70;;;;;;5026247;28;20456;-72
2023/10/11 03:18:27;;;;;;;18.17;7.40;;;14.00;75.80;;;;;;5022939;28;20508;-72
2023/10/11 03:21:09;;;;;;;17.50;7.83;;;14.00;76.20;;;;;;5030748;28;21041;-72
2023/10/11 03:23:43;;;;;;;21.00;8.80;;;14.00;76.20;;;;;;5022508;28;20417;-72
2023/10/11 03:28:57;;;;;;;15.37;8.10;;;14.00;76.20;;;;;;5027676;28;20488;-71
2023/10/11 03:31:31;;;;;;;17.73;8.10;;;13.90;76.50;;;;;;5029669;28;20937;-71
2023/10/11 03:34:10;;;;;;;19.30;8.47;;;13.90;76.80;;;;;;5026608;28;20947;-72
2023/10/11 03:36:43;;;;;;;19.50;8.47;;;13.90;76.80;;;;;;5020986;28;20481;-71
2023/10/11 03:39:15;;;;;;;20.63;8.77;;;13.90;77.10;;;;;;5026448;28;20548;-73
2023/10/11 03:41:46;;;;;;;16.60;8.43;;;13.80;77.10;;;;;;5025968;28;21073;-71
2023/10/11 03:44:17;;;;;;;22.33;8.53;;;13.80;77.40;;;;;;5022470;28;20420;-71
2023/10/11 03:46:47;;;;;;;18.37;8.53;;;13.80;77.30;;;;;;5023978;28;20825;-70
2023/10/11 03:51:48;;;;;;;20.77;8.83;;;13.80;77.40;;;;;;5024628;28;20441;-71
2023/10/11 03:54:22;;;;;;;20.23;7.07;;;13.80;77.40;;;;;;5022737;28;20432;-72
2023/10/11 03:56:53;;;;;;;17.23;7.30;;;13.90;77.60;;;;;;5020813;28;20484;-71
2023/10/11 03:59:25;;;;;;;16.10;7.53;;;13.90;77.40;;;;;;5025411;28;20466;-72
2023/10/11 04:01:52;;;;;;;20.40;8.70;;;13.90;77.30;;;;;;5026868;28;21011;-72
2023/10/11 04:04:20;;;;;;;16.47;7.40;;;13.90;77.30;;;;;;5027878;28;20434;-72
2023/10/11 04:06:51;;;;;;;16.60;6.83;;;13.90;77.40;;;;;;5024299;28;20461;-72
2023/10/11 04:09:22;;;;;;;14.33;7.27;;;13.90;77.60;;;;;;5030582;28;20436;-72
2023/10/11 04:11:57;;;;;;;15.97;8.57;;;13.90;77.40;;;;;;5024822;28;20427;-72
2023/10/11 04:22:51;;;;;;;18.93;7.10;;;13.80;77.80;;;;;;5026874;28;20450;-73
2023/10/11 04:25:22;;;;;;;12.30;7.10;;;13.80;77.80;;;;;;5023144;28;20514;-72
2023/10/11 04:27:54;;;;;;;16.13;7.33;;;13.80;77.80;;;;;;5030482;28;20559;-71
2023/10/11 04:30:41;;;;;;;20.10;7.50;;;13.80;78.00;;;;;;5035827;28;20405;-72
2023/10/11 04:33:10;;;;;;;14.67;6.53;;;13.80;78.00;;;;;;5031266;28;20423;-71
2023/10/11 04:35:42;;;;;;;16.53;7.40;;;13.80;78.00;;;;;;5020201;28;20972;-71
2023/10/11 04:38:11;;;;;;;17.40;6.93;;;13.90;77.80;;;;;;5030339;28;20563;-71
2023/10/11 04:40:47;;;;;;;16.03;7.27;;;13.90;77.80;;;;;;5028988;28;20789;-71
2023/10/11 04:45:44;;;;;;;17.43;7.80;;;13.90;77.70;;;;;;5028146;28;21034;-73
2023/10/11 04:48:39;;;;;;;18.23;7.43;;;13.90;77.80;;;;;;5028663;28;20426;-71
2023/10/11 04:51:13;;;;;;;11.80;6.50;;;13.80;77.60;;;;;;5027055;28;20181;-72
2023/10/11 04:53:58;;;;;;;16.20;6.43;;;14.00;77.00;;;;;;5017130;28;20436;-71
2023/10/11 04:59:12;;;;;;;19.67;7.50;;;14.20;76.10;;;;;;5027155;28;20564;-72
2023/10/11 05:04:26;;;;;;;13.53;6.50;;;14.30;75.80;;;;;;5023755;28;20431;-72
2023/10/11 05:06:53;;;;;;;16.60;7.20;;;14.30;75.40;;;;;;5025605;28;20533;-72
2023/10/11 05:09:29;;;;;;;18.43;6.70;;;14.30;75.20;;;;;;5035002;28;20428;-72
2023/10/11 05:12:19;;;;;;;16.70;6.30;;;14.30;75.10;;;;;;5035145;28;20420;-72
2023/10/11 05:22:35;;;;;;;19.77;7.37;;;14.30;74.90;;;;;;5025493;28;20847;-72
2023/10/11 05:30:16;;;;;;;18.07;7.80;;;14.20;75.40;;;;;;5028172;28;20409;-73
2023/10/11 05:32:49;;;;;;;21.83;8.70;;;14.20;75.80;;;;;;5030947;28;20983;-72
2023/10/11 05:35:24;;;;;;;16.67;8.10;;;14.10;75.40;;;;;;5024595;28;20491;-72
2023/10/11 05:51:32;;;;;;;16.00;6.70;;;13.90;75.90;;;;;;5025726;28;20519;-72
2023/10/11 05:54:07;;;;;;;14.50;7.30;;;13.80;76.50;;;;;;5022415;28;20414;-72
2023/10/11 05:56:34;;;;;;;16.87;7.50;;;13.90;76.40;;;;;;5026898;28;20546;-71
2023/10/11 05:59:04;;;;;;;18.27;7.83;;;14.00;75.70;;;;;;5030405;28;20521;-71
2023/10/11 06:01:31;;;;;;;13.00;6.43;;;13.90;76.10;;;;;;5030948;28;20431;-73
2023/10/11 06:03:57;;;;;;;17.47;7.40;;;13.90;76.10;;;;;;5028377;28;20799;-73
2023/10/11 06:06:23;;;;;;;14.10;7.47;;;13.90;76.20;;;;;;5022244;28;20522;-72
2023/10/11 06:08:50;;;;;;;16.13;7.80;;;13.90;76.10;;;;;;5032358;28;20917;-72
2023/10/11 06:11:16;;;;;;;19.87;8.00;;;13.90;75.90;;;;;;5029253;28;21294;-73
2023/10/11 06:13:43;;;;;;;17.70;8.23;;;14.00;76.50;;;;;;5027338;28;20447;-73
2023/10/11 06:16:13;;;;;;;17.00;8.30;;;14.00;76.50;;;;;;5025420;28;20948;-71
2023/10/11 06:18:39;;;;;;;17.43;7.27;;;14.00;76.70;;;;;;5028307;28;20607;-72
2023/10/11 06:21:30;;;;;;;19.50;8.10;;;14.00;76.50;;;;;;5028182;28;20417;-74
2023/10/11 06:24:00;;;;;;;19.70;8.67;;;14.10;76.10;;;;;;5032930;28;20536;-74
2023/10/11 06:26:29;;;;;;;21.57;8.77;;;14.20;75.90;;;;;;5027700;28;20478;-72
2023/10/11 06:29:04;;;;;;;19.97;9.30;;;14.20;75.90;;;;;;5029568;28;20436;-74
2023/10/11 06:31:39;;;;;;;24.10;9.63;;;14.20;75.90;;;;;;5023139;28;20451;-73
2023/10/11 06:34:15;;;;;;;22.60;9.50;;;14.20;76.10;;;;;;5028152;28;20973;-72
2023/10/11 06:36:50;;;;;;;24.37;10.80;;;14.20;75.80;;;;;;5026228;28;20972;-72
2023/10/11 06:42:12;;;;;;;21.80;9.87;;;14.30;75.70;;;;;;5031794;28;20432;-73
2023/10/11 06:44:39;;;;;;;19.97;8.67;;;14.20;75.40;;;;;;5032766;28;20428;-73
2023/10/11 06:47:04;;;;;;;22.17;10.87;;;14.10;75.70;;;;;;5028264;28;20460;-73
2023/10/11 06:49:40;;;;;;;21.50;9.13;;;14.10;75.80;;;;;;5028094;28;20499;-74
2023/10/11 06:52:15;;;;;;;21.77;9.53;;;14.20;75.90;;;;;;5022924;28;20662;-74
2023/10/11 06:54:47;;;;;;;25.70;9.73;;;14.30;75.80;;;;;;5019401;28;20412;-74
2023/10/11 06:57:19;;;;;;;18.63;8.97;;;14.30;75.80;;;;;;5020453;28;20522;-73
2023/10/11 06:59:49;;;;;;;36.30;13.30;;;14.30;75.70;;;;;;5022119;28;20420;-72
2023/10/11 07:02:18;;;;;;;26.57;11.70;;;14.30;75.80;;;;;;5023050;28;20415;-73
2023/10/11 07:04:52;;;;;;;24.17;10.07;;;14.40;75.70;;;;;;5020828;28;20413;-74
2023/10/11 07:07:18;;;;;;;21.40;9.43;;;14.40;75.70;;;;;;5024391;28;20531;-72
2023/10/11 07:09:56;;;;;;;26.27;9.50;;;14.50;75.70;;;;;;5019425;28;20461;-72
2023/10/11 07:12:28;;;;;;;21.80;9.80;;;14.50;75.70;;;;;;5023021;28;20191;-74
2023/10/11 07:15:00;;;;;;;25.50;9.47;;;14.60;75.50;;;;;;5025559;28;20560;-73
2023/10/11 07:17:28;;;;;;;23.10;8.80;;;14.60;75.40;;;;;;5023028;28;20441;-72
2023/10/11 07:19:57;;;;;;;19.30;9.07;;;14.60;75.20;;;;;;5023200;28;20420;-72
2023/10/11 07:22:26;;;;;;;22.60;10.27;;;14.70;74.90;;;;;;5021814;28;20428;-74
2023/10/11 07:24:55;;;;;;;21.63;9.57;;;14.60;75.10;;;;;;5026901;28;20860;-71
2023/10/11 07:27:37;;;;;;;19.83;8.90;;;14.70;74.80;;;;;;5027320;28;20480;-73
2023/10/11 07:30:06;;;;;;;23.03;9.27;;;14.70;74.20;;;;;;5024210;28;20551;-73
2023/10/11 07:32:36;;;;;;;19.57;8.80;;;14.90;74.00;;;;;;5028693;28;20518;-73
2023/10/11 07:35:07;;;;;;;18.20;8.70;;;14.90;74.00;;;;;;5027060;28;20972;-73
2023/10/11 07:37:32;;;;;;;23.87;10.30;;;14.90;74.00;;;;;;5025826;28;20427;-73
2023/10/11 07:40:09;;;;;;;19.97;8.07;;;15.00;73.90;;;;;;5032052;28;20413;-72
2023/10/11 07:42:38;;;;;;;26.90;10.93;;;15.10;74.00;;;;;;5035158;28;20186;-71
2023/10/11 07:45:12;;;;;;;24.27;9.40;;;15.10;74.00;;;;;;5016761;28;20456;-73
2023/10/11 07:47:45;;;;;;;34.13;9.07;;;15.20;73.30;;;;;;5026024;28;20432;-73
2023/10/11 07:50:14;;;;;;;21.63;8.10;;;15.20;72.70;;;;;;5029794;28;20423;-72
2023/10/11 07:52:41;;;;;;;26.00;9.00;;;15.30;72.30;;;;;;5029224;28;20430;-72
2023/10/11 07:55:12;;;;;;;22.30;8.93;;;15.30;72.40;;;;;;5025221;28;20440;-74
2023/10/11 07:57:44;;;;;;;16.50;7.63;;;15.50;71.70;;;;;;5030737;28;20450;-74
2023/10/11 08:00:17;;;;;;;19.83;8.53;;;15.60;71.40;;;;;;5029149;28;20932;-73
2023/10/11 08:03:02;;;;;;;24.13;9.47;;;15.60;71.30;;;;;;5029901;28;20446;-74
2023/10/11 08:05:29;;;;;;;31.00;9.30;;;15.70;71.40;;;;;;5025521;28;20471;-74
2023/10/11 08:07:55;;;;;;;26.13;10.20;;;15.80;71.10;;;;;;5023982;28;20444;-73
2023/10/11 08:10:33;;;;;;;19.87;9.07;;;15.80;71.00;;;;;;5023606;28;20493;-74
2023/10/11 08:13:00;;;;;;;21.13;9.77;;;15.90;70.70;;;;;;5023018;28;20420;-73
2023/10/11 08:15:26;;;;;;;32.03;11.20;;;16.10;70.10;;;;;;5026072;28;20495;-74
2023/10/11 08:17:52;;;;;;;20.83;8.60;;;16.20;69.90;;;;;;5026439;28;20485;-73
2023/10/11 08:20:18;;;;;;;23.43;9.00;;;16.40;69.50;;;;;;5024323;28;20189;-74
2023/10/11 08:22:47;;;;;;;24.23;9.30;;;16.40;69.40;;;;;;5029664;28;20466;-72
2023/10/11 08:25:25;;;;;;;34.67;9.07;;;16.50;68.60;;;;;;5030045;28;20535;-73
2023/10/11 08:27:57;;;;;;;28.00;9.43;;;16.50;68.80;;;;;;5028996;28;20919;-72
2023/10/11 08:30:23;;;;;;;19.73;8.57;;;16.60;68.50;;;;;;5032477;28;20438;-74
2023/10/11 08:32:50;;;;;;;27.43;9.53;;;16.70;68.20;;;;;;5031719;28;20426;-72
2023/10/11 08:35:31;;;;;;;23.60;8.60;;;16.80;67.70;;;;;;5029083;28;20447;-72
2023/10/11 08:38:04;;;;;;;16.03;8.03;;;16.90;67.50;;;;;;5025949;28;20550;-72
2023/10/11 08:40:35;;;;;;;20.63;9.23;;;17.10;67.00;;;;;;5026571;28;21011;-74
2023/10/11 08:43:02;;;;;;;21.23;7.67;;;17.10;67.00;;;;;;5027813;28;20423;-74
2023/10/11 08:45:36;;;;;;;17.60;7.60;;;17.20;66.70;;;;;;5028912;28;20458;-72
2023/10/11 08:48:06;;;;;;;17.50;8.77;;;17.30;66.60;;;;;;5026299;28;20433;-72
2023/10/11 08:50:35;;;;;;;21.33;8.23;;;17.40;66.40;;;;;;5027592;28;20428;-73
2023/10/11 08:53:08;;;;;;;30.37;8.77;;;17.60;65.70;;;;;;5028173;28;20849;-72
2023/10/11 08:55:39;;;;;;;22.17;8.63;;;17.70;65.40;;;;;;5028975;28;21362;-73
2023/10/11 08:58:06;;;;;;;18.83;7.87;;;17.80;65.10;;;;;;5027539;28;21009;-73
2023/10/11 09:00:33;;;;;;;21.13;8.40;;;17.90;65.00;;;;;;5025835;28;20880;-73
2023/10/11 09:03:17;;;;;;;20.87;8.23;;;18.00;65.00;;;;;;5022407;28;20424;-73
2023/10/11 09:05:43;;;;;;;26.50;9.13;;;18.10;64.80;;;;;;5021897;28;20470;-73
2023/10/11 09:08:27;;;;;;;23.93;8.63;;;18.30;64.40;;;;;;5037486;28;20449;-73
2023/10/11 09:11:12;;;;;;;25.70;8.80;;;18.40;64.20;;;;;;5035114;28;20437;-73
2023/10/11 09:13:39;;;;;;;23.00;8.90;;;18.50;64.20;;;;;;5034839;28;20433;-73
2023/10/11 09:16:12;;;;;;;20.63;8.30;;;18.70;63.80;;;;;;5023978;28;21206;-73
2023/10/11 09:18:39;;;;;;;17.30;7.87;;;18.80;63.80;;;;;;5026988;28;20533;-73
2023/10/11 09:21:15;;;;;;;24.87;7.60;;;18.90;63.40;;;;;;5030900;28;20455;-74
2023/10/11 09:23:49;;;;;;;19.23;8.17;;;19.10;63.40;;;;;;5025635;28;20417;-73
2023/10/11 09:26:32;;;;;;;17.00;8.53;;;19.30;62.90;;;;;;5021178;28;20463;-74
2023/10/11 09:29:03;;;;;;;19.97;7.77;;;19.50;62.80;;;;;;5027364;28;20431;-74
2023/10/11 09:31:32;;;;;;;22.87;9.67;;;19.60;62.80;;;;;;5031398;28;20417;-74
2023/10/11 09:34:05;;;;;;;17.43;7.93;;;19.80;63.10;;;;;;5026594;28;20438;-74
2023/10/11 09:36:31;;;;;;;15.77;6.73;;;19.90;63.40;;;;;;5024721;28;20470;-72
2023/10/11 09:38:58;;;;;;;24.17;7.97;;;20.00;62.90;;;;;;5024170;28;20465;-74
2023/10/11 09:41:40;;;;;;;29.47;7.77;;;20.20;62.60;;;;;;5029858;28;20421;-72
2023/10/11 09:44:10;;;;;;;19.40;8.97;;;20.30;62.60;;;;;;5029833;28;20433;-73
2023/10/11 09:46:37;;;;;;;17.80;6.90;;;20.50;62.00;;;;;;5018244;28;20473;-73
2023/10/11 09:49:04;;;;;;;16.70;7.50;;;20.70;61.70;;;;;;5029588;28;20543;-72
2023/10/11 09:51:31;;;;;;;15.37;7.13;;;20.80;61.60;;;;;;5026079;28;20476;-72
2023/10/11 09:54:02;;;;;;;20.23;7.50;;;20.90;60.70;;;;;;5030575;28;20496;-73
2023/10/11 09:56:59;;;;;;;20.27;7.80;;;21.10;60.70;;;;;;5020352;28;20469;-75
2023/10/11 09:59:27;;;;;;;20.47;6.70;;;21.30;59.50;;;;;;5025649;28;20812;-74
2023/10/11 10:02:03;;;;;;;22.90;6.83;;;21.30;59.20;;;;;;5032234;28;20427;-72
2023/10/11 10:04:49;;;;;;;13.07;6.33;;;21.50;58.50;;;;;;5029681;28;20492;-72
2023/10/11 10:07:25;;;;;;;16.77;6.10;;;21.70;58.40;;;;;;5020206;28;20526;-77
2023/10/11 10:10:02;;;;;;;17.00;7.37;;;21.80;59.10;;;;;;5024866;28;20511;-73
2023/10/11 10:12:40;;;;;;;18.63;8.10;;;21.90;58.50;;;;;;5018012;28;20462;-74
2023/10/11 10:15:09;;;;;;;10.00;5.60;;;22.00;58.80;;;;;;5027805;28;20411;-73
2023/10/11 10:17:37;;;;;;;14.50;6.27;;;22.20;56.80;;;;;;5020655;28;20432;-74
2023/10/11 10:20:33;;;;;;;15.73;5.90;;;22.50;55.80;;;;;;5029066;28;21111;-74
2023/10/11 10:23:37;;;;;;;14.20;5.63;;;22.70;54.20;;;;;;5028020;28;20421;-74
2023/10/11 10:26:06;;;;;;;17.40;5.73;;;23.60;51.20;;;;;;5020069;28;20469;-74
2023/10/11 10:28:34;;;;;;;16.30;5.57;;;24.30;50.50;;;;;;5027481;28;20968;-74
2023/10/11 10:31:04;;;;;;;12.50;5.50;;;25.00;47.90;;;;;;5023790;28;20429;-74
2023/10/11 10:33:35;;;;;;;14.60;5.30;;;25.50;47.10;;;;;;5027761;28;20427;-73
2023/10/11 10:36:21;;;;;;;13.93;5.07;;;26.00;46.10;;;;;;5015830;28;20786;-73
2023/10/11 10:39:01;;;;;;;13.93;5.27;;;26.50;44.60;;;;;;5008945;28;20486;-72
2023/10/11 10:41:31;;;;;;;15.53;5.23;;;26.70;44.90;;;;;;5022742;28;20439;-73
2023/10/11 10:44:04;;;;;;;11.83;4.77;;;26.90;44.50;;;;;;5028412;28;20427;-73
2023/10/11 10:46:31;;;;;;;18.33;5.90;;;27.00;44.20;;;;;;5021628;28;20460;-75
2023/10/11 10:48:56;;;;;;;16.40;5.73;;;27.40;43.10;;;;;;5027606;28;20431;-73
2023/10/11 10:51:25;;;;;;;15.93;6.27;;;27.50;43.10;;;;;;5027116;28;20540;-72
2023/10/11 10:53:51;;;;;;;12.50;6.07;;;27.70;45.10;;;;;;5024702;28;20186;-73
2023/10/11 10:56:21;;;;;;;16.17;7.43;;;28.10;45.00;;;;;;5022534;28;20553;-73
2023/10/11 10:58:47;;;;;;;15.13;6.40;;;28.30;44.50;;;;;;5031064;28;20271;-73
2023/10/11 11:01:12;;;;;;;11.90;6.40;;;28.40;43.80;;;;;;5023796;28;20854;-74
2023/10/11 11:03:41;;;;;;;15.43;6.40;;;28.40;42.80;;;;;;5027663;28;20196;-74
2023/10/11 11:06:11;;;;;;;14.00;6.53;;;28.40;43.50;;;;;;5018023;28;20214;-73
2023/10/11 11:08:39;;;;;;;12.20;5.37;;;28.50;43.40;;;;;;5024910;28;20421;-74
2023/10/11 11:11:25;;;;;;;14.80;6.53;;;28.70;40.70;;;;;;5019761;28;20499;-73
2023/10/11 11:13:52;;;;;;;15.17;6.10;;;28.60;42.60;;;;;;5022696;28;20423;-73
2023/10/11 11:16:30;;;;;;;16.57;5.50;;;28.70;43.10;;;;;;5026591;28;20460;-73
2023/10/11 11:19:00;;;;;;;16.60;5.10;;;28.90;42.20;;;;;;5024245;28;20459;-76
2023/10/11 11:21:30;;;;;;;11.83;4.43;;;29.10;40.20;;;;;;5029014;28;20629;-76
2023/10/11 11:24:27;;;;;;;12.87;5.83;;;29.00;40.00;;;;;;5024079;28;20471;-73
2023/10/11 11:26:54;;;;;;;14.70;5.53;;;28.90;39.80;;;;;;5019210;28;20463;-74
2023/10/11 11:29:31;;;;;;;12.47;4.80;;;29.00;40.20;;;;;;5028013;28;20413;-75
2023/10/11 11:32:00;;;;;;;14.90;5.33;;;29.20;38.70;;;;;;5024999;28;20444;-73
2023/10/11 11:34:44;;;;;;;11.20;5.10;;;29.30;39.00;;;;;;5025807;28;20454;-74
2023/10/11 11:37:20;;;;;;;15.27;6.07;;;29.40;39.10;;;;;;5018847;28;20519;-74
2023/10/11 11:39:52;;;;;;;17.30;5.67;;;29.30;39.20;;;;;;5029819;28;20844;-74
2023/10/11 11:42:23;;;;;;;10.43;4.80;;;29.30;39.10;;;;;;5021027;28;20482;-74
2023/10/11 11:45:08;;;;;;;14.40;5.20;;;29.30;39.40;;;;;;5026415;28;20442;-74
2023/10/11 11:47:34;;;;;;;13.30;5.00;;;29.60;39.00;;;;;;5029576;28;20432;-72
2023/10/11 11:50:04;;;;;;;13.93;5.70;;;29.00;39.40;;;;;;5030939;28;20467;-75
2023/10/11 11:52:30;;;;;;;14.33;5.43;;;28.70;40.70;;;;;;5030359;28;20420;-73
2023/10/11 11:54:56;;;;;;;10.77;5.07;;;28.60;40.20;;;;;;5027028;28;20409;-74
2023/10/11 11:58:10;;;;;;;14.70;5.23;;;28.80;40.20;;;;;;5029007;28;20244;-74
2023/10/11 12:00:39;;;;;;;17.07;5.03;;;28.70;39.00;;;;;;5028357;28;20412;-73
2023/10/11 12:03:06;;;;;;;10.10;4.87;;;28.70;39.50;;;;;;5026028;28;20429;-75
2023/10/11 12:05:41;;;;;;;14.33;4.90;;;28.40;41.90;;;;;;5031097;28;20471;-74
2023/10/11 12:08:12;;;;;;;19.77;5.57;;;28.50;41.90;;;;;;5028044;28;20424;-73
2023/10/11 12:10:37;;;;;;;10.57;4.93;;;28.70;42.00;;;;;;5028546;28;20412;-73
2023/10/11 12:13:06;;;;;;;13.70;5.90;;;28.90;41.00;;;;;;5025372;28;20405;-74
2023/10/11 12:15:33;;;;;;;17.80;6.57;;;29.30;40.40;;;;;;5027927;28;20216;-74
2023/10/11 12:17:59;;;;;;;14.77;5.43;;;29.30;40.30;;;;;;5026824;28;20487;-73
2023/10/11 12:20:34;;;;;;;15.47;5.50;;;29.30;40.20;;;;;;5033110;28;20424;-73
2023/10/11 12:23:08;;;;;;;13.47;5.67;;;29.30;40.40;;;;;;5017645;28;20205;-74
2023/10/11 12:25:40;;;;;;;15.33;5.33;;;29.30;40.60;;;;;;5026155;28;20535;-73
2023/10/11 12:28:08;;;;;;;14.83;5.10;;;29.20;40.30;;;;;;5027010;28;20458;-75
2023/10/11 12:30:35;;;;;;;13.30;5.10;;;28.80;41.20;;;;;;5028938;28;20463;-75
2023/10/11 12:33:08;;;;;;;11.30;4.70;;;29.20;41.40;;;;;;5030983;28;20482;-74
2023/10/11 12:35:37;;;;;;;17.70;5.07;;;29.70;39.80;;;;;;5032611;28;21343;-74
2023/10/11 12:38:03;;;;;;;16.33;5.60;;;30.00;39.20;;;;;;5024747;28;20461;-76
2023/10/11 12:40:29;;;;;;;12.73;5.60;;;29.70;39.00;;;;;;5033658;28;20431;-75
2023/10/11 12:42:57;;;;;;;12.57;5.43;;;29.50;39.60;;;;;;5027972;28;20413;-75
2023/10/11 12:45:23;;;;;;;15.50;5.70;;;29.80;39.60;;;;;;5024240;28;20206;-75
2023/10/11 12:47:48;;;;;;;17.83;5.17;;;30.20;39.10;;;;;;5030336;28;20798;-73
2023/10/11 12:50:14;;;;;;;12.60;5.13;;;30.60;38.20;;;;;;5024102;28;20186;-75
2023/10/11 12:52:40;;;;;;;10.07;5.00;;;31.10;37.50;;;;;;5023207;28;20657;-75
2023/10/11 12:55:07;;;;;;;18.00;5.90;;;31.60;36.70;;;;;;5026145;28;20186;-74
2023/10/11 12:57:38;;;;;;;15.43;5.97;;;31.90;36.30;;;;;;5026251;28;20531;-74
2023/10/11 13:02:58;;;;;;;13.43;6.00;;;31.40;31.50;;;;;;5027548;28;20466;-77
2023/10/11 13:05:33;;;;;;;8.23;4.07;;;30.80;32.90;;;;;;5025634;28;20467;-75
2023/10/11 13:07:58;;;;;;;13.40;4.93;;;30.60;31.10;;;;;;5026194;28;20940;-73
2023/10/11 13:10:24;;;;;;;11.57;4.33;;;30.70;31.50;;;;;;5032153;28;20420;-74
2023/10/11 13:12:53;;;;;;;11.33;4.17;;;30.50;31.60;;;;;;5024246;28;20260;-76
2023/10/11 13:15:21;;;;;;;10.70;4.50;;;30.40;32.10;;;;;;5023479;28;20206;-76
2023/10/11 13:17:46;;;;;;;13.30;3.97;;;30.10;30.90;;;;;;5024873;28;21138;-75
2023/10/11 13:20:18;;;;;;;9.67;4.17;;;29.80;30.90;;;;;;5023474;28;20440;-73
2023/10/11 13:22:44;;;;;;;9.67;4.37;;;29.60;32.10;;;;;;5027826;28;20197;-74
2023/10/11 13:25:23;;;;;;;8.47;3.80;;;29.80;31.70;;;;;;5024363;28;20897;-75
2023/10/11 13:27:54;;;;;;;11.40;4.30;;;29.60;31.70;;;;;;5032122;28;20436;-74
2023/10/11 13:30:23;;;;;;;8.40;3.97;;;29.40;32.80;;;;;;5023256;28;20424;-73
2023/10/11 13:32:52;;;;;;;6.37;3.43;;;29.50;32.70;;;;;;5023861;28;20416;-74
2023/10/11 13:35:19;;;;;;;9.90;3.90;;;29.50;32.40;;;;;;5029518;28;20452;-74
2023/10/11 13:37:47;;;;;;;6.73;3.93;;;29.40;32.90;;;;;;5025767;28;20538;-77
2023/10/11 13:40:15;;;;;;;9.27;4.33;;;29.50;32.90;;;;;;5028688;28;20810;-76
2023/10/11 13:42:42;;;;;;;12.10;4.47;;;29.60;33.50;;;;;;5023343;28;20472;-74
2023/10/11 13:45:16;;;;;;;10.53;4.47;;;29.60;33.30;;;;;;5028366;28;20478;-76
2023/10/11 13:47:42;;;;;;;13.80;4.37;;;29.70;33.20;;;;;;5024013;28;20463;-73
2023/10/11 13:50:20;;;;;;;14.03;4.70;;;29.80;33.10;;;;;;5025391;28;20790;-75